Time;durP1;ratioP1;P1;durP2;ratioP2;P2;SDS_P1;SDS_P2;PMS_P1;PMS_P2;Temp;Humidity;BMP_temperature;BMP_pressure;BME280_temperature;BME280_humidity;BME280_pressure;Samples;Min_cycle;Max_cycle;Signal;HPM_P1;HPM_P2
2023/01/24 00:02:00;;;;;;;23.42;10.60;;;;;;;;;;5072435;28;20412;-81
2023/01/24 00:04:34;;;;;;;25.33;11.38;;;;;;;;;;5065873;28;20418;-81
2023/01/24 00:07:07;;;;;;;28.17;11.80;;;;;;;;;;5079451;28;20907;-80
2023/01/24 00:09:35;;;;;;;24.27;11.00;;;;;;;;;;5067733;28;20479;-80
2023/01/24 00:12:07;;;;;;;24.60;11.13;;;;;;;;;;5066917;28;20512;-82
2023/01/24 00:14:35;;;;;;;26.47;11.67;;;;;;;;;;5081032;28;20417;-80
2023/01/24 00:17:03;;;;;;;26.73;11.25;;;;;;;;;;5065280;28;20903;-80
2023/01/24 00:19:37;;;;;;;23.25;10.85;;;;;;;;;;5066666;28;20784;-80
2023/01/24 00:22:10;;;;;;;26.13;11.98;;;;;;;;;;5078580;28;20428;-80
2023/01/24 00:24:38;;;;;;;25.65;11.05;;;;;;;;;;5061725;28;20407;-81
2023/01/24 00:27:10;;;;;;;25.92;11.32;;;;;;;;;;5067475;28;20427;-81
2023/01/24 00:29:43;;;;;;;30.50;11.98;;;;;;;;;;5083908;28;20412;-80
2023/01/24 00:32:17;;;;;;;25.33;10.98;;;;;;;;;;5079924;28;20427;-80
2023/01/24 00:34:46;;;;;;;23.88;10.38;;;;;;;;;;5073462;28;20425;-82
2023/01/24 00:37:19;;;;;;;25.53;11.33;;;;;;;;;;5064452;28;20929;-81
2023/01/24 00:39:52;;;;;;;25.95;10.88;;;;;;;;;;5082316;28;20433;-81
2023/01/24 00:42:24;;;;;;;28.83;11.15;;;;;;;;;;5066178;28;20741;-80
2023/01/24 00:44:58;;;;;;;26.63;11.07;;;;;;;;;;5063506;28;20442;-80
2023/01/24 00:47:31;;;;;;;26.50;11.48;;;;;;;;;;5082879;28;20422;-81
2023/01/24 00:50:05;;;;;;;25.45;11.23;;;;;;;;;;5081939;28;20447;-80
2023/01/24 00:52:38;;;;;;;25.77;11.50;;;;;;;;;;5075135;28;20435;-80
2023/01/24 00:55:06;;;;;;;23.63;10.77;;;;;;;;;;5062626;28;20427;-80
2023/01/24 00:57:39;;;;;;;27.63;11.45;;;;;;;;;;5059511;28;20434;-81
2023/01/24 01:00:13;;;;;;;29.70;11.20;;;;;;;;;;5062093;28;20426;-80
2023/01/24 01:02:40;;;;;;;28.80;11.73;;;;;;;;;;5063597;28;21066;-80
2023/01/24 01:05:14;;;;;;;26.27;11.20;;;;;;;;;;5060632;28;20905;-80
2023/01/24 01:07:47;;;;;;;27.77;11.45;;;;;;;;;;5062969;28;20419;-81
2023/01/24 01:10:20;;;;;;;26.80;11.55;;;;;;;;;;5077953;28;20420;-81
2023/01/24 01:12:48;;;;;;;24.88;10.95;;;;;;;;;;5063493;28;20419;-80
2023/01/24 01:15:21;;;;;;;29.57;12.30;;;;;;;;;;5061606;28;20454;-80
2023/01/24 01:17:49;;;;;;;29.83;11.57;;;;;;;;;;5061398;28;20782;-80
2023/01/24 01:20:18;;;;;;;28.75;11.77;;;;;;;;;;5069659;28;20411;-80
2023/01/24 01:22:46;;;;;;;27.17;11.50;;;;;;;;;;5060291;28;20426;-80
2023/01/24 01:25:19;;;;;;;25.93;11.17;;;;;;;;;;5068378;28;20786;-80
2023/01/24 01:27:46;;;;;;;28.37;11.50;;;;;;;;;;5068405;28;20439;-80
2023/01/24 01:30:19;;;;;;;31.63;11.73;;;;;;;;;;5060256;28;20427;-80
2023/01/24 01:32:52;;;;;;;25.37;10.80;;;;;;;;;;5076605;28;20436;-80
2023/01/24 01:35:27;;;;;;;27.17;11.67;;;;;;;;;;5063867;28;20414;-81
2023/01/24 01:38:07;;;;;;;30.08;11.48;;;;;;;;;;5080236;28;20786;-82
2023/01/24 01:40:35;;;;;;;29.98;11.77;;;;;;;;;;5082584;28;20423;-81
2023/01/24 01:43:12;;;;;;;31.88;11.77;;;;;;;;;;5064064;28;20417;-81
2023/01/24 01:45:46;;;;;;;30.33;11.82;;;;;;;;;;5060498;28;20431;-80
2023/01/24 01:48:16;;;;;;;33.85;12.05;;;;;;;;;;5063179;28;20421;-80
2023/01/24 01:50:53;;;;;;;27.65;10.93;;;;;;;;;;5057906;28;20427;-81
2023/01/24 01:53:28;;;;;;;28.83;11.57;;;;;;;;;;5060789;28;20414;-82
2023/01/24 01:56:03;;;;;;;30.63;11.82;;;;;;;;;;5080311;28;20423;-81
2023/01/24 01:58:36;;;;;;;29.90;12.20;;;;;;;;;;5073628;28;20433;-82
2023/01/24 02:01:09;;;;;;;29.25;11.88;;;;;;;;;;5065737;28;20420;-82
2023/01/24 02:03:44;;;;;;;28.65;11.70;;;;;;;;;;5078134;28;20434;-81
2023/01/24 02:06:24;;;;;;;26.95;10.98;;;;;;;;;;5065704;28;20435;-81
2023/01/24 02:08:52;;;;;;;28.73;11.27;;;;;;;;;;5064824;28;20429;-81
2023/01/24 02:16:51;;;;;;;29.15;11.60;;;;;;;;;;5057283;28;20428;-81
2023/01/24 02:19:30;;;;;;;27.52;11.43;;;;;;;;;;5066948;28;20427;-80
2023/01/24 02:22:09;;;;;;;31.70;12.07;;;;;;;;;;5068801;28;20760;-81
2023/01/24 02:24:41;;;;;;;33.27;12.60;;;;;;;;;;5076767;28;20496;-81
2023/01/24 02:27:15;;;;;;;30.15;11.90;;;;;;;;;;5075963;28;20924;-82
2023/01/24 02:29:47;;;;;;;29.70;12.05;;;;;;;;;;5061863;28;20430;-81
2023/01/24 02:32:20;;;;;;;33.55;11.65;;;;;;;;;;5068066;28;20424;-81
2023/01/24 02:34:48;;;;;;;32.57;11.80;;;;;;;;;;5061828;28;20416;-81
2023/01/24 02:37:24;;;;;;;30.83;12.02;;;;;;;;;;5082337;28;20427;-80
2023/01/24 02:39:55;;;;;;;30.70;11.20;;;;;;;;;;5067298;28;20450;-82
2023/01/24 02:42:33;;;;;;;30.60;10.88;;;;;;;;;;5061911;28;20952;-80
2023/01/24 02:45:04;;;;;;;29.70;11.90;;;;;;;;;;5065594;28;20450;-82
2023/01/24 02:47:39;;;;;;;29.42;11.18;;;;;;;;;;5058674;28;20427;-80
2023/01/24 02:50:12;;;;;;;31.33;12.00;;;;;;;;;;5064308;28;20412;-81
2023/01/24 02:55:30;;;;;;;29.10;11.43;;;;;;;;;;5064696;28;20419;-81
2023/01/24 02:58:06;;;;;;;32.17;11.77;;;;;;;;;;5070005;28;20428;-81
2023/01/24 03:00:40;;;;;;;29.88;11.55;;;;;;;;;;5060635;28;20921;-81
2023/01/24 03:03:11;;;;;;;34.25;11.77;;;;;;;;;;5059312;28;20424;-80
2023/01/24 03:05:56;;;;;;;31.50;11.55;;;;;;;;;;5058695;28;20425;-80
2023/01/24 03:08:33;;;;;;;30.75;11.98;;;;;;;;;;5055838;28;20406;-81
2023/01/24 03:11:04;;;;;;;28.30;11.18;;;;;;;;;;5054686;28;20421;-80
2023/01/24 03:36:19;;;;;;;35.05;11.57;;;;;;;;;;5065029;28;20423;-80
2023/01/24 03:41:45;;;;;;;30.73;11.70;;;;;;;;;;5067903;28;20423;-80
2023/01/24 03:44:18;;;;;;;30.10;11.73;;;;;;;;;;5067411;28;20430;-81
2023/01/24 03:46:52;;;;;;;30.23;11.20;;;;;;;;;;5064791;28;20411;-81
2023/01/24 03:52:31;;;;;;;30.33;11.75;;;;;;;;;;5066791;28;20421;-80
2023/01/24 03:55:08;;;;;;;32.30;11.95;;;;;;;;;;5084150;28;20420;-81
2023/01/24 03:57:37;;;;;;;34.22;12.35;;;;;;;;;;5082836;28;20438;-81
2023/01/24 04:00:10;;;;;;;31.02;12.05;;;;;;;;;;5078297;28;20775;-80
2023/01/24 04:02:56;;;;;;;30.75;11.13;;;;;;;;;;5064193;28;20932;-80
2023/01/24 04:05:29;;;;;;;26.92;11.10;;;;;;;;;;5079430;28;20415;-80
2023/01/24 04:07:57;;;;;;;31.73;11.25;;;;;;;;;;5067607;28;20428;-81
2023/01/24 04:10:26;;;;;;;31.42;11.68;;;;;;;;;;5069044;28;20424;-80
2023/01/24 04:12:54;;;;;;;31.02;11.85;;;;;;;;;;5072424;28;20412;-80
2023/01/24 04:15:29;;;;;;;28.42;12.15;;;;;;;;;;5078801;28;21281;-81
2023/01/24 04:18:22;;;;;;;27.77;11.52;;;;;;;;;;5068445;28;20407;-81
2023/01/24 04:20:50;;;;;;;31.25;11.73;;;;;;;;;;5065405;28;20425;-82
2023/01/24 04:23:18;;;;;;;30.25;11.13;;;;;;;;;;5066347;28;20433;-81
2023/01/24 04:25:54;;;;;;;33.10;11.30;;;;;;;;;;5061084;28;20440;-81
2023/01/24 04:28:28;;;;;;;33.38;11.02;;;;;;;;;;5070372;28;20899;-80
2023/01/24 04:30:58;;;;;;;36.33;12.10;;;;;;;;;;5069467;28;20429;-80
2023/01/24 04:33:52;;;;;;;29.70;11.20;;;;;;;;;;5066384;28;20443;-82
2023/01/24 04:36:28;;;;;;;28.83;10.73;;;;;;;;;;5066965;28;20413;-80
2023/01/24 04:39:02;;;;;;;30.92;11.60;;;;;;;;;;5075095;28;21324;-81
2023/01/24 04:41:36;;;;;;;10.30;5.55;;;;;;;;;;5081462;28;20779;-80
2023/01/24 04:44:05;;;;;;;13.13;5.93;;;;;;;;;;5083930;28;20440;-80
2023/01/24 04:46:38;;;;;;;18.15;7.63;;;;;;;;;;5058823;28;20778;-80
2023/01/24 04:49:08;;;;;;;17.17;7.10;;;;;;;;;;5062204;28;20446;-81
2023/01/24 04:51:44;;;;;;;20.67;8.38;;;;;;;;;;5062363;28;20412;-80
2023/01/24 04:54:22;;;;;;;22.65;8.52;;;;;;;;;;5061367;28;21248;-81
2023/01/24 04:56:55;;;;;;;22.27;8.38;;;;;;;;;;5077142;28;20426;-81
2023/01/24 04:59:23;;;;;;;19.88;8.10;;;;;;;;;;5076511;28;20427;-80
2023/01/24 05:01:52;;;;;;;23.95;9.23;;;;;;;;;;5071908;28;20417;-81
2023/01/24 05:04:37;;;;;;;24.40;9.52;;;;;;;;;;5079941;28;20412;-80
2023/01/24 05:07:05;;;;;;;23.80;10.05;;;;;;;;;;5079484;28;20427;-81
2023/01/24 05:09:40;;;;;;;16.48;6.40;;;;;;;;;;5064016;28;20408;-81
2023/01/24 05:12:09;;;;;;;17.20;7.28;;;;;;;;;;5067725;28;20416;-81
2023/01/24 05:14:42;;;;;;;17.05;7.60;;;;;;;;;;5061411;28;20417;-80
2023/01/24 05:17:10;;;;;;;18.95;8.57;;;;;;;;;;5070059;28;20827;-80
2023/01/24 05:19:45;;;;;;;20.80;8.15;;;;;;;;;;5069812;28;20776;-81
2023/01/24 05:22:18;;;;;;;18.50;8.13;;;;;;;;;;5063639;28;20436;-81
2023/01/24 05:24:51;;;;;;;17.10;7.80;;;;;;;;;;5065335;28;20502;-81
2023/01/24 05:27:24;;;;;;;16.33;7.30;;;;;;;;;;5061558;28;20435;-80
2023/01/24 05:30:01;;;;;;;16.45;7.65;;;;;;;;;;5059519;28;20421;-82
2023/01/24 05:32:35;;;;;;;18.07;7.90;;;;;;;;;;5078811;28;20426;-80
2023/01/24 05:35:05;;;;;;;17.80;8.02;;;;;;;;;;5075605;28;20432;-81
2023/01/24 05:37:37;;;;;;;17.90;8.30;;;;;;;;;;5078723;28;20799;-81
2023/01/24 05:40:11;;;;;;;20.57;8.93;;;;;;;;;;5065802;28;20431;-80
2023/01/24 05:42:44;;;;;;;15.82;7.68;;;;;;;;;;5062161;28;20425;-81
2023/01/24 05:45:12;;;;;;;16.43;7.53;;;;;;;;;;5078919;28;20755;-80
2023/01/24 05:47:45;;;;;;;14.52;7.28;;;;;;;;;;5059782;28;20421;-81
2023/01/24 05:50:17;;;;;;;16.25;7.82;;;;;;;;;;5079680;28;20424;-80
2023/01/24 05:53:18;;;;;;;17.77;8.68;;;;;;;;;;5063324;28;20899;-81
2023/01/24 05:55:55;;;;;;;17.92;8.65;;;;;;;;;;5059997;28;20419;-81
2023/01/24 05:58:30;;;;;;;16.00;8.10;;;;;;;;;;5077934;28;20439;-81
2023/01/24 06:01:09;;;;;;;19.95;9.32;;;;;;;;;;5079720;28;20427;-82
2023/01/24 06:03:44;;;;;;;19.40;8.85;;;;;;;;;;5059004;28;20423;-81
2023/01/24 06:06:21;;;;;;;21.08;9.25;;;;;;;;;;5062095;28;20943;-81
2023/01/24 06:08:54;;;;;;;14.25;7.90;;;;;;;;;;5071674;28;20429;-80
2023/01/24 06:11:23;;;;;;;13.73;6.22;;;;;;;;;;5077422;28;20442;-82
2023/01/24 06:14:01;;;;;;;14.32;6.78;;;;;;;;;;5075658;28;20447;-81
2023/01/24 06:16:37;;;;;;;14.85;7.50;;;;;;;;;;5059107;28;20428;-81
2023/01/24 06:19:14;;;;;;;16.27;8.05;;;;;;;;;;5059933;28;20774;-80
2023/01/24 06:21:56;;;;;;;15.25;8.13;;;;;;;;;;5061862;28;20423;-81
2023/01/24 06:24:36;;;;;;;14.80;7.40;;;;;;;;;;5062764;28;20424;-79
2023/01/24 06:27:43;;;;;;;17.52;8.32;;;;;;;;;;5043395;28;20438;-81
2023/01/24 06:30:24;;;;;;;16.05;8.10;;;;;;;;;;5059402;28;20404;-80
2023/01/24 06:33:11;;;;;;;17.33;8.25;;;;;;;;;;5064622;28;21188;-80
2023/01/24 06:35:46;;;;;;;15.57;7.50;;;;;;;;;;5059413;28;20789;-81
2023/01/24 06:38:19;;;;;;;16.95;8.10;;;;;;;;;;5075170;28;20440;-81
2023/01/24 06:40:47;;;;;;;17.30;8.18;;;;;;;;;;5061988;28;20426;-80
2023/01/24 06:43:21;;;;;;;15.23;8.10;;;;;;;;;;5060680;28;20429;-80
2023/01/24 06:45:54;;;;;;;16.60;7.90;;;;;;;;;;5076671;28;20439;-81
2023/01/24 06:48:22;;;;;;;16.02;8.20;;;;;;;;;;5063399;28;20436;-80
2023/01/24 06:50:55;;;;;;;15.55;7.70;;;;;;;;;;5076915;28;20427;-81
2023/01/24 06:53:29;;;;;;;17.30;7.97;;;;;;;;;;5063201;28;20430;-82
2023/01/24 06:55:57;;;;;;;15.70;7.82;;;;;;;;;;5056054;28;20432;-82
2023/01/24 06:58:30;;;;;;;16.02;7.57;;;;;;;;;;5059265;28;20434;-82
2023/01/24 07:00:58;;;;;;;16.83;8.35;;;;;;;;;;5058979;28;20907;-82
2023/01/24 07:03:25;;;;;;;15.70;7.68;;;;;;;;;;5074375;28;20924;-82
2023/01/24 07:05:58;;;;;;;15.30;7.72;;;;;;;;;;5057663;28;20432;-82
2023/01/24 07:08:32;;;;;;;16.70;8.40;;;;;;;;;;5060959;28;20428;-82
2023/01/24 07:11:00;;;;;;;17.23;8.40;;;;;;;;;;5059888;28;20781;-81
2023/01/24 07:13:28;;;;;;;12.88;6.97;;;;;;;;;;5058429;28;20434;-82
2023/01/24 07:16:02;;;;;;;13.63;7.20;;;;;;;;;;5057669;28;20950;-83
2023/01/24 07:18:30;;;;;;;14.02;7.78;;;;;;;;;;5060640;28;20413;-82
2023/01/24 07:21:05;;;;;;;16.38;7.70;;;;;;;;;;5068438;28;20797;-82
2023/01/24 07:23:43;;;;;;;13.93;7.85;;;;;;;;;;5073653;28;20434;-82
2023/01/24 07:26:12;;;;;;;14.53;7.50;;;;;;;;;;5059687;28;20427;-81
2023/01/24 07:28:44;;;;;;;15.38;7.90;;;;;;;;;;5076951;28;21175;-82
2023/01/24 07:31:18;;;;;;;15.45;7.93;;;;;;;;;;5075810;28;20497;-82
2023/01/24 07:33:51;;;;;;;17.40;8.73;;;;;;;;;;5061912;28;20424;-83
2023/01/24 07:36:19;;;;;;;15.85;8.18;;;;;;;;;;5058643;28;20434;-82
2023/01/24 07:38:54;;;;;;;16.13;8.20;;;;;;;;;;5056924;28;20433;-82
2023/01/24 07:41:22;;;;;;;14.73;7.70;;;;;;;;;;5077478;28;20436;-82
2023/01/24 07:43:56;;;;;;;18.45;8.68;;;;;;;;;;5059528;28;20828;-82
2023/01/24 07:46:24;;;;;;;16.88;8.80;;;;;;;;;;5073896;28;20432;-82
2023/01/24 07:48:56;;;;;;;16.60;8.32;;;;;;;;;;5075139;28;20423;-82
2023/01/24 07:51:29;;;;;;;16.13;8.90;;;;;;;;;;5062316;28;20449;-82
2023/01/24 07:54:03;;;;;;;17.15;8.73;;;;;;;;;;5056334;28;20417;-82
2023/01/24 07:56:36;;;;;;;15.10;8.48;;;;;;;;;;5059985;28;20928;-82
2023/01/24 07:59:04;;;;;;;14.45;7.43;;;;;;;;;;5059673;28;20421;-82
2023/01/24 08:01:37;;;;;;;16.10;8.50;;;;;;;;;;5055411;28;20780;-82
2023/01/24 08:04:10;;;;;;;16.17;8.13;;;;;;;;;;5058949;28;20436;-82
2023/01/24 08:06:39;;;;;;;13.50;7.93;;;;;;;;;;5059868;28;20421;-83
2023/01/24 08:09:08;;;;;;;14.40;8.13;;;;;;;;;;5061763;28;20894;-82
2023/01/24 08:11:41;;;;;;;15.30;8.30;;;;;;;;;;5059900;28;20425;-82
2023/01/24 08:14:09;;;;;;;15.55;8.32;;;;;;;;;;5055025;28;20888;-82
2023/01/24 08:16:37;;;;;;;15.65;8.10;;;;;;;;;;5060105;28;20431;-82
2023/01/24 08:19:09;;;;;;;13.97;7.80;;;;;;;;;;5057440;28;20548;-83
2023/01/24 08:21:37;;;;;;;14.73;7.60;;;;;;;;;;5058442;28;20413;-82
2023/01/24 08:24:11;;;;;;;13.18;6.65;;;;;;;;;;5060579;28;20429;-82
2023/01/24 08:26:46;;;;;;;15.60;6.75;;;;;;;;;;5063170;28;20434;-83
2023/01/24 08:29:18;;;;;;;12.45;7.18;;;;;;;;;;5079989;28;20454;-81
2023/01/24 08:31:48;;;;;;;15.43;7.70;;;;;;;;;;5058837;28;20424;-81
2023/01/24 08:34:20;;;;;;;16.75;8.88;;;;;;;;;;5059870;28;20919;-82
2023/01/24 08:36:48;;;;;;;13.98;7.47;;;;;;;;;;5062047;28;20429;-81
2023/01/24 08:39:17;;;;;;;13.43;6.95;;;;;;;;;;5075288;28;20419;-82
2023/01/24 08:41:50;;;;;;;13.00;7.90;;;;;;;;;;5062122;28;20758;-81
2023/01/24 08:44:23;;;;;;;15.65;8.70;;;;;;;;;;5061676;28;20953;-82
2023/01/24 08:46:56;;;;;;;16.67;8.15;;;;;;;;;;5056998;28;20435;-83
2023/01/24 08:49:29;;;;;;;14.30;7.95;;;;;;;;;;5043301;28;20439;-82
2023/01/24 08:51:59;;;;;;;14.43;8.07;;;;;;;;;;5046889;28;20435;-83
2023/01/24 08:54:35;;;;;;;15.93;8.27;;;;;;;;;;5038747;28;20427;-82
2023/01/24 08:57:08;;;;;;;14.80;7.95;;;;;;;;;;5042501;28;20420;-83
2023/01/24 08:59:41;;;;;;;13.70;7.78;;;;;;;;;;5046526;28;21293;-83
2023/01/24 09:02:09;;;;;;;14.88;7.40;;;;;;;;;;5047786;28;20431;-83
2023/01/24 09:04:37;;;;;;;15.27;8.18;;;;;;;;;;5038963;28;20435;-81
2023/01/24 09:07:05;;;;;;;14.98;8.10;;;;;;;;;;5042453;28;20427;-82
2023/01/24 09:09:39;;;;;;;16.37;8.47;;;;;;;;;;5048495;28;21892;-82
2023/01/24 09:12:12;;;;;;;16.42;8.30;;;;;;;;;;5038532;28;20439;-81
2023/01/24 09:14:40;;;;;;;15.95;8.63;;;;;;;;;;5047032;28;20438;-82
2023/01/24 09:17:13;;;;;;;16.75;9.25;;;;;;;;;;5039598;28;20435;-82
2023/01/24 09:19:41;;;;;;;17.98;8.77;;;;;;;;;;5037727;28;20435;-81
2023/01/24 09:22:13;;;;;;;16.13;8.77;;;;;;;;;;5045124;28;20431;-82
2023/01/24 09:24:48;;;;;;;16.70;9.40;;;;;;;;;;5042761;28;20435;-83
2023/01/24 09:27:21;;;;;;;15.15;8.45;;;;;;;;;;5037492;28;21060;-81
2023/01/24 09:29:54;;;;;;;17.40;9.27;;;;;;;;;;5045577;28;21511;-82
2023/01/24 09:32:21;;;;;;;15.07;8.30;;;;;;;;;;5058434;28;21258;-82
2023/01/24 09:34:54;;;;;;;15.70;7.90;;;;;;;;;;5047366;28;20423;-82
2023/01/24 09:37:27;;;;;;;16.70;9.10;;;;;;;;;;5058747;28;20431;-81
2023/01/24 09:40:01;;;;;;;17.75;9.38;;;;;;;;;;5046557;28;20420;-84
2023/01/24 09:42:32;;;;;;;15.70;8.57;;;;;;;;;;5045865;28;20435;-85
2023/01/24 09:45:10;;;;;;;17.40;8.85;;;;;;;;;;5047092;28;20446;-85
2023/01/24 09:47:42;;;;;;;17.00;9.80;;;;;;;;;;5046134;28;20912;-84
2023/01/24 09:50:16;;;;;;;15.73;8.75;;;;;;;;;;5044983;28;20446;-83
2023/01/24 09:52:53;;;;;;;16.90;8.70;;;;;;;;;;5048673;28;20439;-82
2023/01/24 09:55:28;;;;;;;16.52;8.73;;;;;;;;;;5042936;28;20437;-83
2023/01/24 09:58:04;;;;;;;17.50;8.50;;;;;;;;;;5046595;28;20430;-83
2023/01/24 10:00:38;;;;;;;14.90;7.95;;;;;;;;;;5051254;28;20424;-83
2023/01/24 10:03:13;;;;;;;15.07;8.40;;;;;;;;;;5052767;28;20772;-83
2023/01/24 10:05:48;;;;;;;13.88;7.95;;;;;;;;;;5043505;28;20424;-84
2023/01/24 10:08:20;;;;;;;14.38;8.32;;;;;;;;;;5043356;28;20435;-83
2023/01/24 10:10:53;;;;;;;16.38;8.60;;;;;;;;;;5046578;28;20426;-84
2023/01/24 10:13:40;;;;;;;14.70;8.23;;;;;;;;;;5047777;28;21150;-83
2023/01/24 10:16:15;;;;;;;15.13;8.90;;;;;;;;;;5043457;28;20458;-84
2023/01/24 10:18:52;;;;;;;15.73;8.77;;;;;;;;;;5050072;28;20439;-82
2023/01/24 10:21:37;;;;;;;14.60;8.23;;;;;;;;;;5046210;28;20435;-83
2023/01/24 10:24:12;;;;;;;14.73;8.38;;;;;;;;;;5041318;28;20438;-83
2023/01/24 10:26:49;;;;;;;14.90;7.90;;;;;;;;;;5043996;28;20420;-84
2023/01/24 10:29:22;;;;;;;15.85;8.13;;;;;;;;;;5055129;28;20453;-83
2023/01/24 10:31:58;;;;;;;15.77;8.35;;;;;;;;;;5048425;28;20989;-85
2023/01/24 10:34:34;;;;;;;18.15;10.52;;;;;;;;;;5043907;28;20439;-84
2023/01/24 10:37:11;;;;;;;19.65;10.35;;;;;;;;;;5047238;28;20419;-84
2023/01/24 10:39:44;;;;;;;16.73;9.60;;;;;;;;;;5061113;28;20431;-83
2023/01/24 10:42:18;;;;;;;20.48;10.40;;;;;;;;;;5062648;28;20466;-85
2023/01/24 10:44:52;;;;;;;18.40;9.38;;;;;;;;;;5048547;28;21681;-83
2023/01/24 10:47:39;;;;;;;16.98;8.43;;;;;;;;;;5043056;28;20427;-84
2023/01/24 10:50:08;;;;;;;15.40;8.27;;;;;;;;;;5046623;28;20435;-83
2023/01/24 10:52:36;;;;;;;14.95;8.57;;;;;;;;;;5047608;28;20440;-85
2023/01/24 10:55:23;;;;;;;16.35;9.40;;;;;;;;;;5045217;28;20780;-83
2023/01/24 10:57:53;;;;;;;16.92;9.20;;;;;;;;;;5043103;28;20432;-83
2023/01/24 11:00:27;;;;;;;17.23;9.65;;;;;;;;;;5046068;28;20424;-84
2023/01/24 11:02:55;;;;;;;17.53;9.83;;;;;;;;;;5046146;28;20434;-84
2023/01/24 11:05:35;;;;;;;17.13;9.70;;;;;;;;;;5047185;28;20428;-84
2023/01/24 11:08:16;;;;;;;16.58;9.00;;;;;;;;;;5049052;28;20431;-84
2023/01/24 11:10:51;;;;;;;15.38;8.55;;;;;;;;;;5048254;28;20424;-85
2023/01/24 11:13:32;;;;;;;15.70;8.45;;;;;;;;;;5052973;28;20415;-84
2023/01/24 11:16:07;;;;;;;17.70;9.10;;;;;;;;;;5057783;28;20449;-84
2023/01/24 11:18:46;;;;;;;17.20;9.30;;;;;;;;;;5043249;28;20439;-84
2023/01/24 11:21:15;;;;;;;16.85;9.10;;;;;;;;;;5041522;28;20431;-84
2023/01/24 11:23:59;;;;;;;17.75;9.57;;;;;;;;;;5045106;28;20811;-83
2023/01/24 11:26:28;;;;;;;17.48;9.68;;;;;;;;;;5043325;28;23111;-84
2023/01/24 11:28:58;;;;;;;18.63;10.90;;;;;;;;;;5063551;28;20434;-83
2023/01/24 11:31:33;;;;;;;17.38;9.90;;;;;;;;;;5058308;28;20772;-85
2023/01/24 11:34:14;;;;;;;19.92;10.60;;;;;;;;;;5049086;28;20431;-84
2023/01/24 11:36:50;;;;;;;20.13;11.13;;;;;;;;;;5041860;28;20428;-83
2023/01/24 11:39:26;;;;;;;18.33;10.45;;;;;;;;;;5056389;28;20431;-83
2023/01/24 11:42:02;;;;;;;16.98;9.65;;;;;;;;;;5047527;28;20431;-84
2023/01/24 11:44:49;;;;;;;17.10;9.38;;;;;;;;;;5042326;28;20895;-85
2023/01/24 11:47:18;;;;;;;17.52;9.25;;;;;;;;;;5044101;28;20427;-83
2023/01/24 11:49:52;;;;;;;16.73;10.02;;;;;;;;;;5049202;28;20934;-83
2023/01/24 11:52:28;;;;;;;18.08;10.30;;;;;;;;;;5065185;28;20440;-84
2023/01/24 11:55:00;;;;;;;16.10;9.13;;;;;;;;;;5044175;28;20446;-86
2023/01/24 11:57:38;;;;;;;18.03;10.50;;;;;;;;;;5046820;28;20431;-86
2023/01/24 12:00:21;;;;;;;17.98;10.32;;;;;;;;;;5047856;28;20435;-85
2023/01/24 12:03:18;;;;;;;17.48;10.07;;;;;;;;;;5054193;28;20950;-82
2023/01/24 12:05:56;;;;;;;18.08;10.00;;;;;;;;;;5025986;28;21787;-83
2023/01/24 12:08:30;;;;;;;16.80;10.13;;;;;;;;;;5046851;28;20462;-83
2023/01/24 12:11:11;;;;;;;17.23;9.40;;;;;;;;;;5048292;28;20434;-83
2023/01/24 12:13:42;;;;;;;16.48;9.38;;;;;;;;;;5052689;28;20415;-84
2023/01/24 12:16:24;;;;;;;18.80;9.73;;;;;;;;;;5054579;28;20795;-83
2023/01/24 12:19:04;;;;;;;16.17;9.70;;;;;;;;;;5061223;28;20435;-84
2023/01/24 12:21:36;;;;;;;17.10;9.45;;;;;;;;;;5044558;28;20431;-84
2023/01/24 12:24:11;;;;;;;15.80;9.30;;;;;;;;;;5049826;28;20446;-82
2023/01/24 12:26:40;;;;;;;15.98;8.80;;;;;;;;;;5047850;28;20936;-83
2023/01/24 12:29:13;;;;;;;16.65;9.10;;;;;;;;;;5047443;28;20436;-85
2023/01/24 12:31:50;;;;;;;14.70;8.43;;;;;;;;;;5057070;28;21814;-84
2023/01/24 12:34:33;;;;;;;18.02;9.77;;;;;;;;;;5054458;28;20435;-84
2023/01/24 12:37:11;;;;;;;17.45;9.50;;;;;;;;;;5049653;28;20942;-84
2023/01/24 12:39:42;;;;;;;15.77;9.05;;;;;;;;;;5066817;28;20465;-83
2023/01/24 12:42:14;;;;;;;15.15;8.80;;;;;;;;;;5048514;28;20432;-84
2023/01/24 12:44:44;;;;;;;11.15;6.85;;;;;;;;;;5047085;28;20688;-84
2023/01/24 12:47:22;;;;;;;11.75;6.75;;;;;;;;;;5063026;28;20434;-84
2023/01/24 12:50:04;;;;;;;12.75;6.90;;;;;;;;;;5054437;28;20475;-83
2023/01/24 12:52:40;;;;;;;12.57;7.30;;;;;;;;;;5043822;28;20435;-83
2023/01/24 12:55:11;;;;;;;15.02;8.10;;;;;;;;;;5047776;28;20796;-87
2023/01/24 12:57:41;;;;;;;14.27;7.93;;;;;;;;;;5043231;28;20582;-83
2023/01/24 13:00:14;;;;;;;13.70;7.80;;;;;;;;;;5049420;28;20783;-83
2023/01/24 13:03:00;;;;;;;13.27;7.68;;;;;;;;;;5047132;28;20419;-83
2023/01/24 13:05:41;;;;;;;14.57;8.25;;;;;;;;;;5058069;28;20419;-83
2023/01/24 13:08:20;;;;;;;14.13;7.72;;;;;;;;;;5044551;28;21010;-81
2023/01/24 13:10:57;;;;;;;14.20;7.72;;;;;;;;;;5049471;28;20431;-83
2023/01/24 13:13:32;;;;;;;13.23;7.40;;;;;;;;;;5054657;28;21068;-84
2023/01/24 13:16:07;;;;;;;12.30;7.25;;;;;;;;;;5045905;28;20434;-84
2023/01/24 13:18:53;;;;;;;12.55;6.90;;;;;;;;;;5055083;28;20434;-84
2023/01/24 13:21:30;;;;;;;15.77;8.57;;;;;;;;;;5062088;28;20431;-83
2023/01/24 13:24:14;;;;;;;18.52;10.35;;;;;;;;;;5051872;28;21138;-83
2023/01/24 13:27:20;;;;;;;15.77;9.25;;;;;;;;;;5048746;28;20466;-84
2023/01/24 13:29:56;;;;;;;19.88;10.05;;;;;;;;;;4983995;28;20433;-82
2023/01/24 13:32:31;;;;;;;17.95;9.70;;;;;;;;;;4987623;28;20860;-83
2023/01/24 13:35:00;;;;;;;19.50;10.18;;;;;;;;;;5017683;28;20431;-84
2023/01/24 13:37:35;;;;;;;18.45;10.30;;;;;;;;;;5044484;28;20428;-82
2023/01/24 13:40:05;;;;;;;18.40;10.23;;;;;;;;;;5050207;28;20446;-82
2023/01/24 13:42:39;;;;;;;18.27;10.32;;;;;;;;;;5065949;28;20436;-84
2023/01/24 13:45:41;;;;;;;16.83;9.90;;;;;;;;;;5040910;28;20432;-83
2023/01/24 13:48:38;;;;;;;20.20;11.30;;;;;;;;;;5015211;28;20455;-82
2023/01/24 13:51:30;;;;;;;20.90;11.73;;;;;;;;;;5018796;28;20793;-81
2023/01/24 13:53:58;;;;;;;20.25;11.20;;;;;;;;;;5041507;28;20428;-82
2023/01/24 13:56:31;;;;;;;21.65;11.93;;;;;;;;;;5047365;28;20431;-82
2023/01/24 13:59:03;;;;;;;22.30;12.23;;;;;;;;;;5035821;28;20427;-82
2023/01/24 14:01:31;;;;;;;21.67;12.07;;;;;;;;;;5034985;28;20432;-81
2023/01/24 14:04:00;;;;;;;23.02;12.77;;;;;;;;;;5038051;28;20427;-81
2023/01/24 14:06:41;;;;;;;20.67;12.10;;;;;;;;;;5044222;28;20434;-81
2023/01/24 14:09:14;;;;;;;22.73;12.05;;;;;;;;;;5043336;28;20978;-82
2023/01/24 14:11:54;;;;;;;23.75;12.43;;;;;;;;;;5051264;28;20446;-82
2023/01/24 14:14:35;;;;;;;22.45;12.07;;;;;;;;;;5043974;28;20442;-83
2023/01/24 14:17:32;;;;;;;23.33;12.45;;;;;;;;;;5047058;28;20435;-81
2023/01/24 14:20:00;;;;;;;19.60;11.32;;;;;;;;;;5044467;28;20431;-83
2023/01/24 14:22:43;;;;;;;18.95;11.38;;;;;;;;;;5043490;28;20440;-82
2023/01/24 14:25:33;;;;;;;19.35;11.32;;;;;;;;;;5051473;28;20424;-84
2023/01/24 14:28:13;;;;;;;20.60;12.15;;;;;;;;;;5047273;28;20424;-82
2023/01/24 14:30:44;;;;;;;19.98;11.13;;;;;;;;;;5044720;28;20502;-82
2023/01/24 14:33:22;;;;;;;19.73;11.40;;;;;;;;;;5053056;28;20917;-85
2023/01/24 14:36:01;;;;;;;22.17;12.40;;;;;;;;;;5040338;28;20427;-81
2023/01/24 14:38:35;;;;;;;23.20;12.23;;;;;;;;;;5040135;28;20424;-81
2023/01/24 14:41:14;;;;;;;20.50;12.07;;;;;;;;;;5041546;28;20428;-82
2023/01/24 14:43:47;;;;;;;26.30;13.50;;;;;;;;;;5042574;28;20438;-83
2023/01/24 14:46:22;;;;;;;23.50;12.87;;;;;;;;;;5046985;28;20431;-82
2023/01/24 14:48:50;;;;;;;24.80;13.27;;;;;;;;;;5022754;28;20435;-82
2023/01/24 14:51:23;;;;;;;24.98;13.55;;;;;;;;;;5042824;28;20493;-82
2023/01/24 14:53:57;;;;;;;26.23;14.02;;;;;;;;;;5061561;28;20749;-82
2023/01/24 14:56:25;;;;;;;27.02;13.93;;;;;;;;;;5043798;28;20842;-86
2023/01/24 14:58:54;;;;;;;26.08;13.35;;;;;;;;;;5045248;28;20419;-84
2023/01/24 15:01:28;;;;;;;26.60;13.43;;;;;;;;;;5047604;28;20954;-84
2023/01/24 15:04:04;;;;;;;27.45;13.68;;;;;;;;;;5049010;28;20442;-84
2023/01/24 15:06:36;;;;;;;27.57;13.30;;;;;;;;;;5042748;28;20427;-84
2023/01/24 15:09:06;;;;;;;28.10;13.73;;;;;;;;;;5041454;28;20530;-82
2023/01/24 15:11:35;;;;;;;27.30;13.93;;;;;;;;;;5040808;28;21096;-83
2023/01/24 15:14:17;;;;;;;26.15;13.90;;;;;;;;;;5052063;28;20427;-85
2023/01/24 15:16:52;;;;;;;27.88;14.80;;;;;;;;;;5048023;28;20459;-88
2023/01/24 15:19:20;;;;;;;26.27;14.02;;;;;;;;;;5049261;28;20428;-82
2023/01/24 15:21:54;;;;;;;29.40;14.18;;;;;;;;;;5047258;28;20424;-82
2023/01/24 15:24:29;;;;;;;26.48;13.63;;;;;;;;;;5043804;28;20435;-82
2023/01/24 15:27:19;;;;;;;29.05;14.73;;;;;;;;;;5040207;28;20427;-82
2023/01/24 15:30:07;;;;;;;28.65;14.95;;;;;;;;;;5034110;28;20434;-81
2023/01/24 15:32:41;;;;;;;29.33;15.48;;;;;;;;;;5053862;28;20741;-81
2023/01/24 15:35:27;;;;;;;26.95;13.88;;;;;;;;;;5038418;28;20435;-81
2023/01/24 15:38:23;;;;;;;30.33;14.60;;;;;;;;;;5034429;28;20439;-82
2023/01/24 15:41:02;;;;;;;30.50;15.57;;;;;;;;;;5044435;28;21656;-82
2023/01/24 15:43:45;;;;;;;29.92;15.70;;;;;;;;;;5043703;28;20840;-81